Airfield :







YOU CAN JOIN US ON...

 
LOGIN :

Register | Disclaimer

   EN    FR    IT 

 









Legend :    VFR   Marginal VFR   IFR   Intensive IFR   Very Intensive IFR
Visi :
Ceiling :
>= 8 km
>= 3000ft
5 to 8 km
1000 to 3000 ft
1500m to 5 km
500 to 1000 ft
800 to 1500m
200 to 500 ft
< 800m
< 200 ft
Symbols :   Thunderstorms  Fog  Heavy snow  Heavy precipitations  Wind > 20 kt







- Airport Elevation : 270 ft
- IATA code : YMX


CYMX - Montreal International Mirabel

CURRENT METAR :
  • 160100Z VRB02KT 25SM BKN055 BKN150 13/08 A3008 RMK SC6AC1 SLP190

EXPIRED METARs :
  • 160000Z 30004KT 260V340 25SM BKN055 OVC150 14/09 A3007 RMK SC7AC1 SLP187
  • 152300Z 25003KT 220V300 45SM BKN055 BKN160 14/10 A3006 RMK SC6AC1 SLP182

TAF TAF CYMX
Valid from the 16 at 00:00 until the 17 at 00:00 UTC


152338Z 1600/1624 VRB03KT P6SM BKN050
TEMPO 1602/1605 FEW050
FM160500 VRB03KT P6SM FEW040
PROB30 1609/1613 1SM BR
FM161300 VRB03KT P6SM FEW030
BECMG 1614/1616 30008KT
FM162000 31010G20KT P6SM FEW050
BECMG 1622/1624 VRB03KT RMK NXT FCST BY 160600Z
No reported NOTAMs for that airfield.



MET'MAP, your aeronautical weather chart ! - Copyright ORBIFLY December 2007 - Disclaimer

ORBIFLY MET'MAP TEAM :

Programming & Development : Alexandra Zaïnal
Concept & Development : Baudouin d'Aumeries
Co-Development & Prog : Marc-Olivier Méhu
Technical & hardware support : Manuel Goepfert

Contact : metmap@orbifly.com




SOURCES & CREDITS :

   NOAA